createdAt,value
2022-10-17T00:00:49.391Z,19.14
2022-10-17T00:01:49.372Z,19.14
2022-10-17T00:02:49.255Z,19.15
2022-10-17T00:03:49.259Z,19.12
2022-10-17T00:04:49.271Z,19.12
2022-10-17T00:05:49.238Z,19.14
2022-10-17T00:06:49.218Z,19.12
2022-10-17T00:07:49.228Z,19.14
2022-10-17T00:08:49.199Z,19.14
2022-10-17T00:09:49.235Z,19.14
2022-10-17T00:10:49.230Z,19.14
2022-10-17T00:11:49.188Z,19.14
2022-10-17T00:12:49.148Z,19.12
2022-10-17T00:13:49.158Z,19.12
2022-10-17T00:14:49.136Z,19.12
2022-10-17T00:15:49.136Z,19.12
2022-10-17T00:16:49.095Z,19.12
2022-10-17T00:17:49.117Z,19.11
2022-10-17T00:18:49.085Z,19.11
2022-10-17T00:19:49.087Z,19.11
2022-10-17T00:20:49.066Z,19.11
2022-10-17T00:21:49.043Z,19.11
2022-10-17T00:22:49.066Z,19.11
2022-10-17T00:23:49.041Z,19.12
2022-10-17T00:24:49.035Z,19.11
2022-10-17T00:25:49.025Z,19.11
2022-10-17T00:26:49.003Z,19.11
2022-10-17T00:27:49.017Z,19.11
2022-10-17T00:28:49.042Z,19.11
2022-10-17T00:29:48.962Z,19.11
2022-10-17T00:30:48.961Z,19.11
2022-10-17T00:31:48.987Z,19.09
2022-10-17T00:32:48.933Z,19.09
2022-10-17T00:33:48.945Z,19.09
2022-10-17T00:34:48.911Z,19.09
2022-10-17T00:35:48.904Z,19.08
2022-10-17T00:36:48.894Z,19.09
2022-10-17T00:37:48.881Z,19.09
2022-10-17T00:38:48.896Z,19.09
2022-10-17T00:39:48.869Z,19.09
2022-10-17T00:40:48.877Z,19.08
2022-10-17T00:41:48.846Z,19.08
2022-10-17T00:42:56.313Z,19.08
2022-10-17T00:43:56.313Z,19.04
2022-10-17T00:44:56.305Z,19.07
2022-10-17T00:45:48.778Z,19.08
2022-10-17T00:46:48.772Z,19.08
2022-10-17T00:47:56.271Z,19.07
2022-10-17T00:48:48.758Z,19.08
2022-10-17T00:49:48.816Z,19.07
2022-10-17T00:50:48.729Z,19.07
2022-10-17T00:51:48.706Z,19.08
2022-10-17T00:52:48.708Z,19.07
2022-10-17T00:53:48.722Z,19.07
2022-10-17T00:54:48.717Z,19.07
2022-10-17T00:55:48.695Z,19.07
2022-10-17T00:56:48.708Z,19.04
2022-10-17T00:57:48.669Z,19.04
2022-10-17T00:58:48.651Z,19.07
2022-10-17T00:59:48.699Z,19.04
2022-10-17T01:00:48.644Z,19.07
2022-10-17T01:01:48.697Z,19.04
2022-10-17T01:02:48.678Z,19.07
2022-10-17T01:03:48.609Z,19.04
2022-10-17T01:04:48.602Z,19.07
2022-10-17T01:05:48.594Z,19.04
2022-10-17T01:06:48.584Z,19.02
2022-10-17T01:07:48.572Z,19.04
2022-10-17T01:08:48.536Z,19.02
2022-10-17T01:09:48.525Z,19.04
2022-10-17T01:10:48.523Z,19.04
2022-10-17T01:11:48.505Z,19.04
2022-10-17T01:12:48.533Z,19.02
2022-10-17T01:13:48.502Z,19.04
2022-10-17T01:14:48.463Z,19.04
2022-10-17T01:15:48.478Z,19.02
2022-10-17T01:16:48.473Z,19.02
2022-10-17T01:17:48.460Z,19.02
2022-10-17T01:18:48.448Z,19.02
2022-10-17T01:19:48.461Z,19.00
2022-10-17T01:20:48.415Z,19.02
2022-10-17T01:21:48.403Z,19.00
2022-10-17T01:22:48.421Z,19.02
2022-10-17T01:23:48.377Z,19.00
2022-10-17T01:24:48.375Z,19.00
2022-10-17T01:25:48.389Z,19.00
2022-10-17T01:26:48.360Z,19.02
2022-10-17T01:27:48.357Z,19.00
2022-10-17T01:28:48.347Z,18.99
2022-10-17T01:29:48.351Z,18.99
2022-10-17T01:30:48.427Z,19.00
2022-10-17T01:31:48.304Z,18.99
2022-10-17T01:32:48.267Z,18.99
2022-10-17T01:33:48.274Z,18.99
2022-10-17T01:34:48.269Z,18.99
2022-10-17T01:35:48.249Z,18.99
2022-10-17T01:36:48.245Z,18.98
2022-10-17T01:37:48.286Z,18.98
2022-10-17T01:38:48.204Z,18.98
2022-10-17T01:39:48.225Z,18.99
2022-10-17T01:40:48.228Z,18.98
2022-10-17T01:41:48.198Z,18.99
2022-10-17T01:42:48.181Z,18.99
2022-10-17T01:43:48.187Z,18.98
2022-10-17T01:44:48.156Z,18.98
2022-10-17T01:45:48.156Z,18.96
2022-10-17T01:46:48.182Z,18.98
2022-10-17T01:47:48.111Z,18.96
2022-10-17T01:48:48.121Z,18.96
2022-10-17T01:49:48.092Z,18.96
2022-10-17T01:50:48.076Z,18.95
2022-10-17T01:51:48.094Z,18.96
2022-10-17T01:52:48.054Z,18.95
2022-10-17T01:53:48.053Z,18.95
2022-10-17T01:54:48.031Z,18.98
2022-10-17T01:55:48.069Z,18.96
2022-10-17T01:56:48.055Z,18.95
2022-10-17T01:57:48.030Z,18.95
2022-10-17T01:58:47.984Z,18.95
2022-10-17T01:59:48.005Z,18.95
2022-10-17T02:00:47.964Z,18.95
2022-10-17T02:01:48.052Z,18.95
2022-10-17T02:02:47.974Z,18.95
2022-10-17T02:03:47.967Z,18.96
2022-10-17T02:04:47.942Z,18.95
2022-10-17T02:05:47.934Z,18.95
2022-10-17T02:06:47.890Z,18.96
2022-10-17T02:07:47.909Z,18.95
2022-10-17T02:08:47.892Z,18.95
2022-10-17T02:09:47.903Z,18.96
2022-10-17T02:10:47.887Z,18.95
2022-10-17T02:11:47.876Z,18.95
2022-10-17T02:12:47.871Z,18.95
2022-10-17T02:13:47.845Z,18.93
2022-10-17T02:14:47.842Z,18.93
2022-10-17T02:15:47.813Z,18.95
2022-10-17T02:16:47.807Z,18.95
2022-10-17T02:17:47.806Z,18.93
2022-10-17T02:18:47.795Z,18.95
2022-10-17T02:19:47.774Z,18.93
2022-10-17T02:20:47.771Z,18.95
2022-10-17T02:21:47.765Z,18.95
2022-10-17T02:22:47.731Z,18.93
2022-10-17T02:23:47.733Z,18.93
2022-10-17T02:24:47.700Z,18.93
2022-10-17T02:25:47.703Z,18.95
2022-10-17T02:26:47.716Z,18.92
2022-10-17T02:27:47.685Z,18.95
2022-10-17T02:28:47.719Z,18.93
2022-10-17T02:29:47.660Z,18.93
2022-10-17T02:30:47.640Z,18.92
2022-10-17T02:31:47.640Z,18.92
2022-10-17T02:32:49.486Z,18.92
2022-10-17T02:33:47.609Z,18.92
2022-10-17T02:34:47.631Z,18.92
2022-10-17T02:35:47.614Z,18.93
2022-10-17T02:36:47.605Z,18.92
2022-10-17T02:37:47.594Z,18.92
2022-10-17T02:38:47.562Z,18.93
2022-10-17T02:39:47.568Z,18.92
2022-10-17T02:40:47.548Z,18.92
2022-10-17T02:41:47.529Z,18.90
2022-10-17T02:42:47.529Z,18.92
2022-10-17T02:43:47.523Z,18.92
2022-10-17T02:44:47.513Z,18.92
2022-10-17T02:45:47.489Z,18.92
2022-10-17T02:46:47.469Z,18.90
2022-10-17T02:47:47.469Z,18.90
2022-10-17T02:48:47.495Z,18.90
2022-10-17T02:49:47.472Z,18.90
2022-10-17T02:50:47.442Z,18.90
2022-10-17T02:51:47.420Z,18.90
2022-10-17T02:52:47.429Z,18.90
2022-10-17T02:53:47.395Z,18.90
2022-10-17T02:54:47.397Z,18.92
2022-10-17T02:55:47.400Z,18.90
2022-10-17T02:56:47.387Z,18.92
2022-10-17T02:57:47.381Z,18.89
2022-10-17T02:58:47.480Z,18.90
2022-10-17T02:59:47.328Z,18.92
2022-10-17T03:00:47.344Z,18.89
2022-10-17T03:01:47.331Z,18.89
2022-10-17T03:02:47.295Z,18.90
2022-10-17T03:03:47.324Z,18.89
2022-10-17T03:04:47.321Z,18.90
2022-10-17T03:05:47.310Z,18.90
2022-10-17T03:06:47.281Z,18.88
2022-10-17T03:07:47.248Z,18.89
2022-10-17T03:08:47.242Z,18.89
2022-10-17T03:09:47.239Z,18.89
2022-10-17T03:10:47.241Z,18.89
2022-10-17T03:11:47.237Z,18.89
2022-10-17T03:12:47.210Z,18.89
2022-10-17T03:13:47.187Z,18.89
2022-10-17T03:14:47.200Z,18.89
2022-10-17T03:15:47.168Z,18.89
2022-10-17T03:16:47.190Z,18.89
2022-10-17T03:17:47.181Z,18.88
2022-10-17T03:18:49.997Z,18.89
2022-10-17T03:19:47.142Z,18.89
2022-10-17T03:20:47.155Z,18.88
2022-10-17T03:21:47.112Z,18.88
2022-10-17T03:22:47.078Z,18.89
2022-10-17T03:23:47.091Z,18.86
2022-10-17T03:24:47.065Z,18.86
2022-10-17T03:25:47.070Z,18.88
2022-10-17T03:27:47.027Z,18.86
2022-10-17T03:28:50.624Z,18.86
2022-10-17T03:29:48.015Z,18.86
2022-10-17T03:30:46.998Z,18.86
2022-10-17T03:31:46.998Z,18.86
2022-10-17T03:32:47.002Z,18.86
2022-10-17T03:33:46.989Z,18.86
2022-10-17T03:34:46.956Z,18.86
2022-10-17T03:35:47.034Z,18.86
2022-10-17T03:36:46.937Z,18.86
2022-10-17T03:37:46.918Z,18.86
2022-10-17T03:38:46.936Z,18.86
2022-10-17T03:39:46.934Z,18.86
2022-10-17T03:40:46.897Z,18.86
2022-10-17T03:41:46.899Z,18.88
2022-10-17T03:42:46.902Z,18.88
2022-10-17T03:43:46.877Z,18.86
2022-10-17T03:44:46.857Z,18.86
2022-10-17T03:45:46.861Z,18.86
2022-10-17T03:46:46.850Z,18.86
2022-10-17T03:47:46.827Z,18.86
2022-10-17T03:48:46.829Z,18.86
2022-10-17T03:49:46.803Z,18.84
2022-10-17T03:50:46.788Z,18.86
2022-10-17T03:51:46.766Z,18.86
2022-10-17T03:52:46.775Z,18.88
2022-10-17T03:53:46.767Z,18.84
2022-10-17T03:54:46.732Z,18.84
2022-10-17T03:55:46.724Z,18.84
2022-10-17T03:56:46.779Z,18.84
2022-10-17T03:57:46.710Z,18.86
2022-10-17T03:58:46.713Z,18.86
2022-10-17T03:59:46.674Z,18.84
2022-10-17T04:00:46.710Z,18.84
2022-10-17T04:01:46.726Z,18.86
2022-10-17T04:02:46.704Z,18.84
2022-10-17T04:03:46.643Z,18.86
2022-10-17T04:04:46.639Z,18.84
2022-10-17T04:05:46.635Z,18.83
2022-10-17T04:06:46.609Z,18.83
2022-10-17T04:07:46.617Z,18.84
2022-10-17T04:08:46.593Z,18.84
2022-10-17T04:09:46.579Z,18.84
2022-10-17T04:10:46.570Z,18.84
2022-10-17T04:11:46.574Z,18.84
2022-10-17T04:12:46.572Z,18.84
2022-10-17T04:13:46.570Z,18.86
2022-10-17T04:14:46.535Z,18.84
2022-10-17T04:15:46.531Z,18.84
2022-10-17T04:16:46.490Z,18.86
2022-10-17T04:17:48.454Z,18.84
2022-10-17T04:18:46.491Z,18.83
2022-10-17T04:19:46.526Z,18.84
2022-10-17T04:20:46.475Z,18.84
2022-10-17T04:21:46.482Z,18.84
2022-10-17T04:22:46.495Z,18.83
2022-10-17T04:23:46.431Z,18.84
2022-10-17T04:24:46.457Z,18.83
2022-10-17T04:25:46.429Z,18.84
2022-10-17T04:26:46.421Z,18.84
2022-10-17T04:27:46.405Z,18.84
2022-10-17T04:28:46.407Z,18.84
2022-10-17T04:29:46.384Z,18.83
2022-10-17T04:30:47.433Z,18.83
2022-10-17T04:31:46.341Z,18.83
2022-10-17T04:32:47.008Z,18.83
2022-10-17T04:33:46.323Z,18.83
2022-10-17T04:34:46.310Z,18.83
2022-10-17T04:35:46.289Z,18.83
2022-10-17T04:36:46.294Z,18.83
2022-10-17T04:37:46.307Z,18.83
2022-10-17T04:38:46.295Z,18.83
2022-10-17T04:39:46.249Z,18.81
2022-10-17T04:40:46.280Z,18.83
2022-10-17T04:41:46.220Z,18.83
2022-10-17T04:42:46.242Z,18.81
2022-10-17T04:43:50.089Z,18.81
2022-10-17T04:44:47.203Z,18.81
2022-10-17T04:45:46.186Z,18.81
2022-10-17T04:46:46.201Z,18.81
2022-10-17T04:47:46.171Z,18.81
2022-10-17T04:48:46.148Z,18.80
2022-10-17T04:49:46.131Z,18.81
2022-10-17T04:50:46.161Z,18.80
2022-10-17T04:51:46.127Z,18.81
2022-10-17T04:52:46.126Z,18.80
2022-10-17T04:53:46.093Z,18.80
2022-10-17T04:54:46.087Z,18.80
2022-10-17T04:55:46.077Z,18.80
2022-10-17T04:56:46.081Z,18.78
2022-10-17T04:57:46.048Z,18.78
2022-10-17T04:58:46.064Z,18.81
2022-10-17T04:59:46.017Z,18.80
2022-10-17T05:00:46.115Z,18.80
2022-10-17T05:01:46.010Z,18.80
2022-10-17T05:02:46.007Z,18.80
2022-10-17T05:03:46.001Z,18.78
2022-10-17T05:04:45.990Z,18.80
2022-10-17T05:05:45.980Z,18.80
2022-10-17T05:06:45.994Z,18.78
2022-10-17T05:07:46.008Z,18.78
2022-10-17T05:08:52.967Z,18.77
2022-10-17T05:09:45.914Z,18.78
2022-10-17T05:10:50.489Z,18.78
2022-10-17T05:11:45.891Z,18.78
2022-10-17T05:12:45.903Z,18.77
2022-10-17T05:13:45.895Z,18.78
2022-10-17T05:14:45.873Z,18.77
2022-10-17T05:15:45.868Z,18.78
2022-10-17T05:16:45.867Z,18.77
2022-10-17T05:17:45.829Z,18.77
2022-10-17T05:18:49.434Z,18.78
2022-10-17T05:19:46.830Z,18.78
2022-10-17T05:20:45.816Z,18.78
2022-10-17T05:21:45.797Z,18.77
2022-10-17T05:22:45.793Z,18.78
2022-10-17T05:23:45.762Z,18.77
2022-10-17T05:24:45.774Z,18.77
2022-10-17T05:25:45.743Z,18.77
2022-10-17T05:26:45.741Z,18.77
2022-10-17T05:27:45.731Z,18.78
2022-10-17T05:28:45.806Z,18.77
2022-10-17T05:29:45.726Z,18.77
2022-10-17T05:30:45.705Z,18.75
2022-10-17T05:31:45.701Z,18.77
2022-10-17T05:32:45.695Z,18.77
2022-10-17T05:33:45.674Z,18.77
2022-10-17T05:34:45.673Z,18.77
2022-10-17T05:35:45.666Z,18.77
2022-10-17T05:36:45.636Z,18.77
2022-10-17T05:37:45.624Z,18.77
2022-10-17T05:38:45.603Z,18.75
2022-10-17T05:39:50.582Z,18.77
2022-10-17T05:40:46.640Z,18.75
2022-10-17T05:41:45.583Z,18.75
2022-10-17T05:42:45.587Z,18.75
2022-10-17T05:43:45.552Z,18.75
2022-10-17T05:44:45.554Z,18.75
2022-10-17T05:45:45.531Z,18.75
2022-10-17T05:46:45.535Z,18.77
2022-10-17T05:47:45.514Z,18.77
2022-10-17T05:48:45.515Z,18.75
2022-10-17T05:49:49.975Z,18.75
2022-10-17T05:50:46.475Z,18.75
2022-10-17T05:51:45.473Z,18.77
2022-10-17T05:52:47.159Z,18.75
2022-10-17T05:53:45.458Z,18.75
2022-10-17T05:54:45.455Z,18.75
2022-10-17T05:55:45.432Z,18.75
2022-10-17T05:56:45.423Z,18.74
2022-10-17T05:57:45.392Z,18.74
2022-10-17T05:58:55.192Z,18.75
2022-10-17T05:59:46.380Z,18.75
2022-10-17T06:01:45.425Z,18.75
2022-10-17T06:02:45.379Z,18.75
2022-10-17T06:03:45.346Z,18.74
2022-10-17T06:04:45.347Z,18.74
2022-10-17T06:05:45.313Z,18.74
2022-10-17T06:06:45.365Z,18.74
2022-10-17T06:07:45.302Z,18.75
2022-10-17T06:08:45.307Z,18.74
2022-10-17T06:10:45.274Z,18.74
2022-10-17T06:11:45.276Z,18.74
2022-10-17T06:12:45.260Z,18.74
2022-10-17T06:13:45.243Z,18.74
2022-10-17T06:14:45.234Z,18.74
2022-10-17T06:15:45.226Z,18.74
2022-10-17T06:16:45.215Z,18.74
2022-10-17T06:17:45.213Z,18.75
2022-10-17T06:18:45.244Z,18.74
2022-10-17T06:19:45.316Z,18.73
2022-10-17T06:20:46.108Z,18.74
2022-10-17T06:21:45.177Z,18.73
2022-10-17T06:22:45.150Z,18.74
2022-10-17T06:23:45.140Z,18.73
2022-10-17T06:24:45.134Z,18.74
2022-10-17T06:25:45.091Z,18.74
2022-10-17T06:26:45.096Z,18.73
2022-10-17T06:27:45.161Z,18.74
2022-10-17T06:28:45.139Z,18.74
2022-10-17T06:29:45.077Z,18.73
2022-10-17T06:30:45.055Z,18.74
2022-10-17T06:31:45.042Z,18.74
2022-10-17T06:32:45.039Z,18.73
2022-10-17T06:33:45.033Z,18.73
2022-10-17T06:34:45.023Z,18.73
2022-10-17T06:35:44.981Z,18.74
2022-10-17T06:36:45.021Z,18.73
2022-10-17T06:37:44.981Z,18.73
2022-10-17T06:38:45.001Z,18.73
2022-10-17T06:39:44.947Z,18.71
2022-10-17T06:40:44.965Z,18.73
2022-10-17T06:41:44.929Z,18.73
2022-10-17T06:42:44.919Z,18.73
2022-10-17T06:43:44.900Z,18.73
2022-10-17T06:44:44.891Z,18.73
2022-10-17T06:45:44.943Z,18.73
2022-10-17T06:46:44.898Z,18.73
2022-10-17T06:47:44.863Z,18.71
2022-10-17T06:48:44.850Z,18.71
2022-10-17T06:49:44.838Z,18.73
2022-10-17T06:50:44.857Z,18.73
2022-10-17T06:51:44.834Z,18.73
2022-10-17T06:52:44.872Z,18.73
2022-10-17T06:53:44.810Z,18.73
2022-10-17T06:54:44.807Z,18.71
2022-10-17T06:55:44.793Z,18.73
2022-10-17T06:56:44.771Z,18.73
2022-10-17T06:57:44.775Z,18.71
2022-10-17T06:58:44.771Z,18.73
2022-10-17T06:59:44.738Z,18.73
2022-10-17T07:00:44.837Z,18.71
2022-10-17T07:01:47.126Z,18.73
2022-10-17T07:02:44.718Z,18.73
2022-10-17T07:03:44.706Z,18.73
2022-10-17T07:04:44.712Z,18.71
2022-10-17T07:05:44.682Z,18.71
2022-10-17T07:06:44.657Z,18.70
2022-10-17T07:07:45.634Z,18.71
2022-10-17T07:08:44.651Z,18.70
2022-10-17T07:09:44.632Z,18.71
2022-10-17T07:10:44.636Z,18.71
2022-10-17T07:11:44.606Z,18.71
2022-10-17T07:12:44.629Z,18.71
2022-10-17T07:13:44.585Z,18.71
2022-10-17T07:14:44.577Z,18.70
2022-10-17T07:15:44.560Z,18.71
2022-10-17T07:16:44.560Z,18.71
2022-10-17T07:17:44.551Z,18.70
2022-10-17T07:18:44.542Z,18.70
2022-10-17T07:19:44.527Z,18.71
2022-10-17T07:20:44.518Z,18.71
2022-10-17T07:21:44.510Z,18.70
2022-10-17T07:22:44.508Z,18.71
2022-10-17T07:23:44.478Z,18.70
2022-10-17T07:24:44.535Z,18.70
2022-10-17T07:25:44.480Z,18.71
2022-10-17T07:26:44.461Z,18.70
2022-10-17T07:27:44.443Z,18.71
2022-10-17T07:28:44.527Z,18.71
2022-10-17T07:29:44.414Z,18.71
2022-10-17T07:30:44.423Z,18.70
2022-10-17T07:31:44.408Z,18.71
2022-10-17T07:32:44.386Z,18.70
2022-10-17T07:33:44.379Z,18.71
2022-10-17T07:34:44.356Z,18.70
2022-10-17T07:35:44.340Z,18.70
2022-10-17T07:36:44.358Z,18.70
2022-10-17T07:37:44.327Z,18.70
2022-10-17T07:38:44.319Z,18.70
2022-10-17T07:39:44.315Z,18.70
2022-10-17T07:40:44.303Z,18.71
2022-10-17T07:41:44.295Z,18.70
2022-10-17T07:42:44.291Z,18.71
2022-10-17T07:43:44.255Z,18.70
2022-10-17T07:44:44.260Z,18.70
2022-10-17T07:45:44.249Z,18.70
2022-10-17T07:46:44.236Z,18.70
2022-10-17T07:47:44.252Z,18.70
2022-10-17T07:48:44.207Z,18.70
2022-10-17T07:49:44.215Z,18.70
2022-10-17T07:50:44.202Z,18.70
2022-10-17T07:51:44.240Z,18.68
2022-10-17T07:52:44.258Z,18.71
2022-10-17T07:53:46.449Z,18.70
2022-10-17T07:54:44.149Z,18.71
2022-10-17T07:55:44.155Z,18.70
2022-10-17T07:56:44.169Z,18.71
2022-10-17T07:57:44.130Z,18.68
2022-10-17T07:58:44.192Z,18.70
2022-10-17T07:59:44.098Z,18.71
2022-10-17T08:00:44.210Z,18.71
2022-10-17T08:01:44.092Z,18.71
2022-10-17T08:02:44.118Z,18.68
2022-10-17T08:03:44.062Z,18.71
2022-10-17T08:04:44.061Z,18.71
2022-10-17T08:05:44.024Z,18.71
2022-10-17T08:06:44.015Z,18.71
2022-10-17T08:07:44.004Z,18.70
2022-10-17T08:08:43.999Z,18.71
2022-10-17T08:09:43.999Z,18.71
2022-10-17T08:10:43.975Z,18.73
2022-10-17T08:11:43.979Z,18.71
2022-10-17T08:12:43.968Z,18.73
2022-10-17T08:13:43.951Z,18.73
2022-10-17T08:14:43.937Z,18.73
2022-10-17T08:15:43.939Z,18.73
2022-10-17T08:16:43.899Z,18.74
2022-10-17T08:17:43.896Z,18.74
2022-10-17T08:18:43.876Z,18.74
2022-10-17T08:19:43.910Z,18.74
2022-10-17T08:20:43.865Z,18.75
2022-10-17T08:21:43.844Z,18.74
2022-10-17T08:22:43.855Z,18.75
2022-10-17T08:23:43.834Z,18.75
2022-10-17T08:24:43.817Z,18.77
2022-10-17T08:25:43.813Z,18.77
2022-10-17T08:26:46.152Z,18.77
2022-10-17T08:27:43.879Z,18.77
2022-10-17T08:28:43.857Z,18.77
2022-10-17T08:29:43.786Z,18.80
2022-10-17T08:30:43.836Z,18.81
2022-10-17T08:31:47.478Z,18.78
2022-10-17T08:32:43.737Z,18.81
2022-10-17T08:33:44.084Z,18.83
2022-10-17T08:34:43.705Z,18.83
2022-10-17T08:35:43.704Z,18.84
2022-10-17T08:36:43.754Z,18.83
2022-10-17T08:37:43.700Z,18.84
2022-10-17T08:38:43.965Z,18.84
2022-10-17T08:39:43.697Z,18.86
2022-10-17T08:40:43.668Z,18.88
2022-10-17T08:41:43.689Z,18.88
2022-10-17T08:42:43.636Z,18.88
2022-10-17T08:43:43.638Z,18.90
2022-10-17T08:44:43.625Z,18.90
2022-10-17T08:45:43.614Z,18.90
2022-10-17T08:46:43.590Z,18.92
2022-10-17T08:47:43.581Z,18.93
2022-10-17T08:48:46.276Z,18.95
2022-10-17T08:49:43.585Z,18.95
2022-10-17T08:50:43.541Z,18.96
2022-10-17T08:51:43.545Z,18.96
2022-10-17T08:52:43.534Z,18.99
2022-10-17T08:53:43.525Z,18.99
2022-10-17T08:54:43.491Z,19.02
2022-10-17T08:55:45.474Z,19.04
2022-10-17T08:56:48.839Z,19.04
2022-10-17T08:57:44.486Z,19.08
2022-10-17T08:58:43.473Z,19.09
2022-10-17T08:59:43.440Z,19.09
2022-10-17T09:00:43.446Z,19.09
2022-10-17T09:01:43.429Z,19.12
2022-10-17T09:02:43.537Z,19.12
2022-10-17T09:03:43.447Z,19.14
2022-10-17T09:04:43.389Z,19.14
2022-10-17T09:05:43.413Z,19.16
2022-10-17T09:06:43.383Z,19.16
2022-10-17T09:07:43.360Z,19.18
2022-10-17T09:08:43.395Z,19.18
2022-10-17T09:09:43.348Z,19.18
2022-10-17T09:10:43.320Z,19.19
2022-10-17T09:11:43.335Z,19.19
2022-10-17T09:12:43.300Z,19.19
2022-10-17T09:13:43.333Z,19.21
2022-10-17T09:14:43.278Z,19.21
2022-10-17T09:15:43.293Z,19.22
2022-10-17T09:16:43.282Z,19.22
2022-10-17T09:17:43.256Z,19.22
2022-10-17T09:18:43.292Z,19.22
2022-10-17T09:19:43.262Z,19.24
2022-10-17T09:20:43.232Z,19.24
2022-10-17T09:21:43.231Z,19.26
2022-10-17T09:22:43.303Z,19.27
2022-10-17T09:23:43.226Z,19.26
2022-10-17T09:24:43.181Z,19.29
2022-10-17T09:25:43.206Z,19.29
2022-10-17T09:26:43.158Z,19.27
2022-10-17T09:27:43.288Z,19.30
2022-10-17T09:28:43.166Z,19.30
2022-10-17T09:29:44.012Z,19.30
2022-10-17T09:30:45.617Z,19.30
2022-10-17T09:31:43.126Z,19.30
2022-10-17T09:32:43.092Z,19.30
2022-10-17T09:33:53.989Z,19.31
2022-10-17T09:34:44.272Z,19.33
2022-10-17T09:35:43.087Z,19.33
2022-10-17T09:36:43.061Z,19.34
2022-10-17T09:37:43.062Z,19.33
2022-10-17T09:38:43.057Z,19.34
2022-10-17T09:39:43.037Z,19.34
2022-10-17T09:40:43.017Z,19.34
2022-10-17T09:41:46.081Z,19.34
2022-10-17T09:42:43.000Z,19.34
2022-10-17T09:43:42.987Z,19.34
2022-10-17T09:44:43.025Z,19.36
2022-10-17T09:45:43.006Z,19.36
2022-10-17T09:46:43.290Z,19.37
2022-10-17T09:47:43.153Z,19.37
2022-10-17T09:48:43.513Z,19.37
2022-10-17T09:49:43.444Z,19.36
2022-10-17T09:50:42.911Z,19.37
2022-10-17T09:51:43.273Z,19.39
2022-10-17T09:52:42.881Z,19.37
2022-10-17T09:53:42.867Z,19.37
2022-10-17T09:54:42.886Z,19.39
2022-10-17T09:55:42.845Z,19.39
2022-10-17T09:56:42.848Z,19.39
2022-10-17T09:57:43.007Z,19.39
2022-10-17T09:58:42.819Z,19.39
2022-10-17T09:59:42.798Z,19.39
2022-10-17T10:00:42.856Z,19.39
2022-10-17T10:01:42.799Z,19.40
2022-10-17T10:02:42.782Z,19.41
2022-10-17T10:03:42.774Z,19.40
2022-10-17T10:05:03.253Z,19.40
2022-10-17T10:05:43.786Z,19.41
2022-10-17T10:06:42.739Z,19.44
2022-10-17T10:07:42.750Z,19.41
2022-10-17T10:08:42.718Z,19.45
2022-10-17T10:09:42.696Z,19.45
2022-10-17T10:10:42.700Z,19.45
2022-10-17T10:11:42.674Z,19.47
2022-10-17T10:12:42.675Z,19.49
2022-10-17T10:13:42.807Z,19.51
2022-10-17T10:14:46.233Z,19.51
2022-10-17T10:15:43.019Z,19.52
2022-10-17T10:16:42.652Z,19.54
2022-10-17T10:17:42.639Z,19.55
2022-10-17T10:18:43.317Z,19.55
2022-10-17T10:19:42.595Z,19.58
2022-10-17T10:20:42.593Z,19.59
2022-10-17T10:21:45.141Z,19.62
2022-10-17T10:22:42.550Z,19.63
2022-10-17T10:23:42.560Z,19.64
2022-10-17T10:24:42.563Z,19.66
2022-10-17T10:25:42.518Z,19.67
2022-10-17T10:26:42.513Z,19.69
2022-10-17T10:27:42.551Z,19.71
2022-10-17T10:28:42.533Z,19.71
2022-10-17T10:29:42.483Z,19.71
2022-10-17T10:30:42.489Z,19.71
2022-10-17T10:31:42.469Z,19.73
2022-10-17T10:32:42.449Z,19.74
2022-10-17T10:33:44.147Z,19.74
2022-10-17T10:34:42.443Z,19.74
2022-10-17T10:35:42.429Z,19.76
2022-10-17T10:36:42.435Z,19.77
2022-10-17T10:37:42.397Z,19.77
2022-10-17T10:38:42.402Z,19.79
2022-10-17T10:39:42.408Z,19.79
2022-10-17T10:40:42.411Z,19.79
2022-10-17T10:41:42.397Z,19.81
2022-10-17T10:42:42.353Z,19.82
2022-10-17T10:43:42.421Z,19.82
2022-10-17T10:44:42.339Z,19.82
2022-10-17T10:45:48.307Z,19.84
2022-10-17T10:46:43.300Z,19.84
2022-10-17T10:47:42.309Z,19.84
2022-10-17T10:48:42.268Z,19.85
2022-10-17T10:49:42.256Z,19.84
2022-10-17T10:50:45.323Z,19.86
2022-10-17T10:51:42.239Z,19.89
2022-10-17T10:52:42.225Z,19.88
2022-10-17T10:53:42.252Z,19.88
2022-10-17T10:54:42.250Z,19.91
2022-10-17T10:55:42.219Z,19.91
2022-10-17T10:56:42.187Z,19.92
2022-10-17T10:57:42.183Z,19.92
2022-10-17T10:58:42.973Z,19.95
2022-10-17T10:59:42.159Z,19.95
2022-10-17T11:00:42.282Z,19.99
2022-10-17T11:01:42.124Z,19.96
2022-10-17T11:02:42.159Z,20.00
2022-10-17T11:03:42.155Z,20.02
2022-10-17T11:04:42.114Z,20.03
2022-10-17T11:05:42.074Z,20.03
2022-10-17T11:06:42.125Z,20.03
2022-10-17T11:07:42.199Z,20.04
2022-10-17T11:08:42.045Z,20.06
2022-10-17T11:09:42.037Z,20.06
2022-10-17T11:10:42.047Z,20.07
2022-10-17T11:11:42.031Z,20.07
2022-10-17T11:12:42.064Z,20.09
2022-10-17T11:13:41.996Z,20.10
2022-10-17T11:14:42.000Z,20.10
2022-10-17T11:15:41.987Z,20.10
2022-10-17T11:16:41.995Z,20.10
2022-10-17T11:17:42.204Z,20.11
2022-10-17T11:18:41.959Z,20.13
2022-10-17T11:19:41.924Z,20.14
2022-10-17T11:20:41.907Z,20.16
2022-10-17T11:22:41.906Z,20.18
2022-10-17T11:23:42.013Z,20.19
2022-10-17T11:24:41.873Z,20.19
2022-10-17T11:25:41.863Z,20.21
2022-10-17T11:26:41.847Z,20.22
2022-10-17T11:27:41.837Z,20.24
2022-10-17T11:28:41.881Z,20.25
2022-10-17T11:29:41.827Z,20.26
2022-10-17T11:30:41.941Z,20.29
2022-10-17T11:31:41.809Z,20.28
2022-10-17T11:32:41.787Z,20.29
2022-10-17T11:33:41.872Z,20.31
2022-10-17T11:34:41.764Z,20.31
2022-10-17T11:35:41.754Z,20.32
2022-10-17T11:36:41.824Z,20.32
2022-10-17T11:37:42.397Z,20.32
2022-10-17T11:38:41.726Z,20.34
2022-10-17T11:39:41.816Z,20.34
2022-10-17T11:40:41.714Z,20.36
2022-10-17T11:41:41.676Z,20.34
2022-10-17T11:42:41.690Z,20.34
2022-10-17T11:43:41.665Z,20.36
2022-10-17T11:44:41.753Z,20.36
2022-10-17T11:45:41.683Z,20.39
2022-10-17T11:46:41.680Z,20.37
2022-10-17T11:47:41.837Z,20.37
2022-10-17T11:48:41.603Z,20.37
2022-10-17T11:49:42.183Z,20.39
2022-10-17T11:52:55.991Z,20.37
2022-10-17T11:53:42.583Z,20.37
2022-10-17T11:54:41.555Z,20.39
2022-10-17T11:55:41.560Z,20.40
2022-10-17T11:56:42.959Z,20.40
2022-10-17T11:57:41.511Z,20.40
2022-10-17T11:58:41.737Z,20.39
2022-10-17T11:59:41.497Z,20.40
2022-10-17T12:00:42.704Z,20.40
2022-10-17T12:01:41.484Z,20.40
2022-10-17T12:02:41.494Z,20.40
2022-10-17T12:03:41.501Z,20.40
2022-10-17T12:04:46.252Z,20.40
2022-10-17T12:05:42.414Z,20.40
2022-10-17T12:06:41.436Z,20.40
2022-10-17T12:08:41.437Z,20.40
2022-10-17T12:09:41.490Z,20.40
2022-10-17T12:10:41.439Z,20.39
2022-10-17T12:11:41.356Z,20.40
2022-10-17T12:12:41.356Z,20.39
2022-10-17T12:13:41.406Z,20.39
2022-10-17T12:14:41.360Z,20.40
2022-10-17T12:15:44.727Z,20.40
2022-10-17T12:17:41.300Z,20.40
2022-10-17T12:18:41.675Z,20.40
2022-10-17T12:19:41.274Z,20.39
2022-10-17T12:20:41.416Z,20.40
2022-10-17T12:21:42.874Z,20.40
2022-10-17T12:22:41.243Z,20.41
2022-10-17T12:23:41.235Z,20.41
2022-10-17T12:24:41.228Z,20.41
2022-10-17T12:26:41.202Z,20.43
2022-10-17T12:27:41.204Z,20.43
2022-10-17T12:28:41.228Z,20.43
2022-10-17T12:29:41.774Z,20.43
2022-10-17T12:30:41.446Z,20.43
2022-10-17T12:31:41.122Z,20.43
2022-10-17T12:33:00.498Z,20.43
2022-10-17T12:33:42.142Z,20.44
2022-10-17T12:34:41.118Z,20.44
2022-10-17T12:35:41.191Z,20.47
2022-10-17T12:36:41.080Z,20.44
2022-10-17T12:37:41.088Z,20.43
2022-10-17T12:38:41.095Z,20.44
2022-10-17T12:39:41.076Z,20.43
2022-10-17T12:40:43.048Z,20.47
2022-10-17T12:41:42.103Z,20.44
2022-10-17T12:42:41.024Z,20.44
2022-10-17T12:43:44.084Z,20.43
2022-10-17T12:44:41.208Z,20.47
2022-10-17T12:45:41.084Z,20.47
2022-10-17T12:46:41.118Z,20.44
2022-10-17T12:47:41.084Z,20.47
2022-10-17T12:48:41.061Z,20.47
2022-10-17T12:49:40.996Z,20.47
2022-10-17T12:50:40.955Z,20.47
2022-10-17T12:51:41.088Z,20.47
2022-10-17T12:52:41.020Z,20.47
2022-10-17T12:53:41.272Z,20.48
2022-10-17T12:54:47.324Z,20.44
2022-10-17T12:55:42.009Z,20.47
2022-10-17T12:56:40.908Z,20.47
2022-10-17T12:57:41.334Z,20.44
2022-10-17T12:58:41.104Z,20.47
2022-10-17T12:59:42.928Z,20.47
2022-10-17T13:00:43.860Z,20.44
2022-10-17T13:01:43.024Z,20.43